sensor_id;sensor_type;location;lat;lon;timestamp;P1;durP1;ratioP1;P2;durP2;ratioP2
52878;SDS011;38747;53.140;6.498;2023-10-31T00:01:04;4.38;;;0.80;;
52878;SDS011;38747;53.140;6.498;2023-10-31T00:03:30;5.00;;;1.33;;
52878;SDS011;38747;53.140;6.498;2023-10-31T00:05:57;4.05;;;1.10;;
52878;SDS011;38747;53.140;6.498;2023-10-31T00:08:22;4.85;;;1.10;;
52878;SDS011;38747;53.140;6.498;2023-10-31T00:10:49;7.30;;;1.60;;
52878;SDS011;38747;53.140;6.498;2023-10-31T00:13:18;3.90;;;1.10;;
52878;SDS011;38747;53.140;6.498;2023-10-31T00:15:44;5.47;;;1.05;;
52878;SDS011;38747;53.140;6.498;2023-10-31T00:18:09;3.83;;;1.20;;
52878;SDS011;38747;53.140;6.498;2023-10-31T00:20:35;5.57;;;1.00;;
52878;SDS011;38747;53.140;6.498;2023-10-31T00:23:01;2.05;;;0.60;;
52878;SDS011;38747;53.140;6.498;2023-10-31T00:25:27;4.73;;;0.80;;
52878;SDS011;38747;53.140;6.498;2023-10-31T00:27:52;2.22;;;0.73;;
52878;SDS011;38747;53.140;6.498;2023-10-31T00:30:18;3.00;;;0.80;;
52878;SDS011;38747;53.140;6.498;2023-10-31T00:32:44;2.33;;;0.73;;
52878;SDS011;38747;53.140;6.498;2023-10-31T00:35:10;2.65;;;0.70;;
52878;SDS011;38747;53.140;6.498;2023-10-31T00:37:37;2.03;;;0.70;;
52878;SDS011;38747;53.140;6.498;2023-10-31T00:40:06;3.63;;;1.05;;
52878;SDS011;38747;53.140;6.498;2023-10-31T00:42:32;3.42;;;0.82;;
52878;SDS011;38747;53.140;6.498;2023-10-31T00:44:59;7.20;;;0.90;;
52878;SDS011;38747;53.140;6.498;2023-10-31T00:47:24;4.55;;;0.70;;
52878;SDS011;38747;53.140;6.498;2023-10-31T00:49:50;3.50;;;1.07;;
52878;SDS011;38747;53.140;6.498;2023-10-31T00:52:18;4.00;;;0.90;;
52878;SDS011;38747;53.140;6.498;2023-10-31T00:54:43;3.97;;;0.90;;
52878;SDS011;38747;53.140;6.498;2023-10-31T00:57:09;3.30;;;0.57;;
52878;SDS011;38747;53.140;6.498;2023-10-31T00:59:35;2.40;;;0.60;;
52878;SDS011;38747;53.140;6.498;2023-10-31T01:02:00;3.40;;;0.60;;
52878;SDS011;38747;53.140;6.498;2023-10-31T01:04:26;2.57;;;0.60;;
52878;SDS011;38747;53.140;6.498;2023-10-31T01:06:51;3.55;;;0.70;;
52878;SDS011;38747;53.140;6.498;2023-10-31T01:09:17;4.00;;;1.03;;
52878;SDS011;38747;53.140;6.498;2023-10-31T01:11:43;4.53;;;1.00;;
52878;SDS011;38747;53.140;6.498;2023-10-31T01:14:08;2.97;;;1.13;;
52878;SDS011;38747;53.140;6.498;2023-10-31T01:16:34;5.67;;;1.07;;
52878;SDS011;38747;53.140;6.498;2023-10-31T01:19:00;3.63;;;0.90;;
52878;SDS011;38747;53.140;6.498;2023-10-31T01:21:25;6.40;;;1.07;;
52878;SDS011;38747;53.140;6.498;2023-10-31T01:23:51;3.70;;;1.00;;
52878;SDS011;38747;53.140;6.498;2023-10-31T01:26:16;2.53;;;0.60;;
52878;SDS011;38747;53.140;6.498;2023-10-31T01:28:42;4.28;;;1.10;;
52878;SDS011;38747;53.140;6.498;2023-10-31T01:31:07;3.90;;;0.90;;
52878;SDS011;38747;53.140;6.498;2023-10-31T01:33:33;4.32;;;1.00;;
52878;SDS011;38747;53.140;6.498;2023-10-31T01:35:59;3.63;;;0.80;;
52878;SDS011;38747;53.140;6.498;2023-10-31T01:38:24;1.93;;;0.53;;
52878;SDS011;38747;53.140;6.498;2023-10-31T01:40:50;3.17;;;0.73;;
52878;SDS011;38747;53.140;6.498;2023-10-31T01:46:01;3.50;;;0.85;;
52878;SDS011;38747;53.140;6.498;2023-10-31T01:48:30;6.40;;;0.90;;
52878;SDS011;38747;53.140;6.498;2023-10-31T01:50:58;4.20;;;0.70;;
52878;SDS011;38747;53.140;6.498;2023-10-31T01:53:25;2.55;;;0.88;;
52878;SDS011;38747;53.140;6.498;2023-10-31T01:55:52;3.67;;;0.70;;
52878;SDS011;38747;53.140;6.498;2023-10-31T01:58:20;4.13;;;0.80;;
52878;SDS011;38747;53.140;6.498;2023-10-31T02:00:53;3.92;;;0.80;;
52878;SDS011;38747;53.140;6.498;2023-10-31T02:03:20;4.03;;;0.60;;
52878;SDS011;38747;53.140;6.498;2023-10-31T02:05:46;5.07;;;0.83;;
52878;SDS011;38747;53.140;6.498;2023-10-31T02:08:12;3.80;;;0.68;;
52878;SDS011;38747;53.140;6.498;2023-10-31T02:10:37;4.87;;;0.70;;
52878;SDS011;38747;53.140;6.498;2023-10-31T02:13:10;8.30;;;0.80;;
52878;SDS011;38747;53.140;6.498;2023-10-31T02:15:44;3.40;;;0.70;;
52878;SDS011;38747;53.140;6.498;2023-10-31T02:18:11;4.50;;;0.85;;
52878;SDS011;38747;53.140;6.498;2023-10-31T02:20:37;3.33;;;0.60;;
52878;SDS011;38747;53.140;6.498;2023-10-31T02:23:03;4.57;;;0.70;;
52878;SDS011;38747;53.140;6.498;2023-10-31T02:25:29;5.95;;;0.60;;
52878;SDS011;38747;53.140;6.498;2023-10-31T02:27:55;5.20;;;0.88;;
52878;SDS011;38747;53.140;6.498;2023-10-31T02:30:21;5.93;;;1.43;;
52878;SDS011;38747;53.140;6.498;2023-10-31T02:32:47;6.30;;;0.70;;
52878;SDS011;38747;53.140;6.498;2023-10-31T02:35:13;9.82;;;0.88;;
52878;SDS011;38747;53.140;6.498;2023-10-31T02:37:42;3.90;;;0.60;;
52878;SDS011;38747;53.140;6.498;2023-10-31T02:40:09;6.53;;;0.70;;
52878;SDS011;38747;53.140;6.498;2023-10-31T02:42:35;7.30;;;0.90;;
52878;SDS011;38747;53.140;6.498;2023-10-31T02:45:00;7.55;;;1.00;;
52878;SDS011;38747;53.140;6.498;2023-10-31T02:47:26;7.43;;;1.10;;
52878;SDS011;38747;53.140;6.498;2023-10-31T02:49:52;6.63;;;0.95;;
52878;SDS011;38747;53.140;6.498;2023-10-31T02:52:17;6.13;;;0.90;;
52878;SDS011;38747;53.140;6.498;2023-10-31T02:54:43;8.03;;;1.33;;
52878;SDS011;38747;53.140;6.498;2023-10-31T02:57:08;8.38;;;1.35;;
52878;SDS011;38747;53.140;6.498;2023-10-31T02:59:34;8.33;;;1.20;;
52878;SDS011;38747;53.140;6.498;2023-10-31T03:02:00;5.60;;;1.20;;
52878;SDS011;38747;53.140;6.498;2023-10-31T03:04:29;6.43;;;1.65;;
52878;SDS011;38747;53.140;6.498;2023-10-31T03:06:54;7.13;;;1.53;;
52878;SDS011;38747;53.140;6.498;2023-10-31T03:09:20;7.30;;;1.40;;
52878;SDS011;38747;53.140;6.498;2023-10-31T03:11:45;8.50;;;1.67;;
52878;SDS011;38747;53.140;6.498;2023-10-31T03:14:11;7.85;;;1.70;;
52878;SDS011;38747;53.140;6.498;2023-10-31T03:16:37;10.03;;;1.70;;
52878;SDS011;38747;53.140;6.498;2023-10-31T03:19:03;7.10;;;1.80;;
52878;SDS011;38747;53.140;6.498;2023-10-31T03:21:29;9.93;;;2.40;;
52878;SDS011;38747;53.140;6.498;2023-10-31T03:23:54;5.82;;;1.85;;
52878;SDS011;38747;53.140;6.498;2023-10-31T03:26:23;10.35;;;2.13;;
52878;SDS011;38747;53.140;6.498;2023-10-31T03:28:48;10.50;;;2.20;;
52878;SDS011;38747;53.140;6.498;2023-10-31T03:31:15;8.68;;;2.30;;
52878;SDS011;38747;53.140;6.498;2023-10-31T03:33:41;8.32;;;2.10;;
52878;SDS011;38747;53.140;6.498;2023-10-31T03:36:07;6.73;;;2.27;;
52878;SDS011;38747;53.140;6.498;2023-10-31T03:38:34;6.47;;;2.05;;
52878;SDS011;38747;53.140;6.498;2023-10-31T03:41:00;7.53;;;2.20;;
52878;SDS011;38747;53.140;6.498;2023-10-31T03:43:26;8.15;;;2.60;;
52878;SDS011;38747;53.140;6.498;2023-10-31T03:45:52;5.57;;;1.93;;
52878;SDS011;38747;53.140;6.498;2023-10-31T03:48:18;6.10;;;2.10;;
52878;SDS011;38747;53.140;6.498;2023-10-31T03:50:43;7.15;;;2.28;;
52878;SDS011;38747;53.140;6.498;2023-10-31T03:53:09;8.87;;;1.90;;
52878;SDS011;38747;53.140;6.498;2023-10-31T03:55:35;7.32;;;1.98;;
52878;SDS011;38747;53.140;6.498;2023-10-31T03:58:01;8.80;;;2.25;;
52878;SDS011;38747;53.140;6.498;2023-10-31T04:00:26;8.33;;;2.33;;
52878;SDS011;38747;53.140;6.498;2023-10-31T04:02:52;6.85;;;1.90;;
52878;SDS011;38747;53.140;6.498;2023-10-31T04:05:18;6.70;;;1.53;;
52878;SDS011;38747;53.140;6.498;2023-10-31T04:07:44;7.20;;;1.55;;
52878;SDS011;38747;53.140;6.498;2023-10-31T04:10:12;5.70;;;1.30;;
52878;SDS011;38747;53.140;6.498;2023-10-31T04:12:38;5.07;;;1.60;;
52878;SDS011;38747;53.140;6.498;2023-10-31T04:15:04;5.82;;;1.70;;
52878;SDS011;38747;53.140;6.498;2023-10-31T04:17:30;5.75;;;1.88;;
52878;SDS011;38747;53.140;6.498;2023-10-31T04:19:56;6.10;;;1.80;;
52878;SDS011;38747;53.140;6.498;2023-10-31T04:22:22;5.93;;;1.60;;
52878;SDS011;38747;53.140;6.498;2023-10-31T04:24:47;5.60;;;1.60;;
52878;SDS011;38747;53.140;6.498;2023-10-31T04:27:13;6.70;;;1.70;;
52878;SDS011;38747;53.140;6.498;2023-10-31T04:29:38;6.87;;;1.57;;
52878;SDS011;38747;53.140;6.498;2023-10-31T04:32:04;8.45;;;1.80;;
52878;SDS011;38747;53.140;6.498;2023-10-31T04:34:30;5.43;;;1.30;;
52878;SDS011;38747;53.140;6.498;2023-10-31T04:36:56;6.25;;;1.90;;
52878;SDS011;38747;53.140;6.498;2023-10-31T04:39:21;5.03;;;1.40;;
52878;SDS011;38747;53.140;6.498;2023-10-31T04:41:47;6.85;;;1.38;;
52878;SDS011;38747;53.140;6.498;2023-10-31T04:44:13;7.70;;;1.30;;
52878;SDS011;38747;53.140;6.498;2023-10-31T04:46:38;7.57;;;1.50;;
52878;SDS011;38747;53.140;6.498;2023-10-31T04:49:04;3.97;;;1.27;;
52878;SDS011;38747;53.140;6.498;2023-10-31T04:51:36;7.35;;;0.98;;
52878;SDS011;38747;53.140;6.498;2023-10-31T04:54:02;4.60;;;1.10;;
52878;SDS011;38747;53.140;6.498;2023-10-31T04:56:29;5.88;;;1.00;;
52878;SDS011;38747;53.140;6.498;2023-10-31T04:58:55;5.95;;;0.93;;
52878;SDS011;38747;53.140;6.498;2023-10-31T05:01:20;5.17;;;0.90;;
52878;SDS011;38747;53.140;6.498;2023-10-31T05:03:46;5.13;;;0.80;;
52878;SDS011;38747;53.140;6.498;2023-10-31T05:06:11;4.63;;;1.00;;
52878;SDS011;38747;53.140;6.498;2023-10-31T05:08:37;2.53;;;0.80;;
52878;SDS011;38747;53.140;6.498;2023-10-31T05:11:03;5.10;;;0.83;;
52878;SDS011;38747;53.140;6.498;2023-10-31T05:13:28;5.47;;;0.80;;
52878;SDS011;38747;53.140;6.498;2023-10-31T05:15:54;6.30;;;0.83;;
52878;SDS011;38747;53.140;6.498;2023-10-31T05:18:20;3.05;;;0.60;;
52878;SDS011;38747;53.140;6.498;2023-10-31T05:20:46;3.78;;;0.80;;
52878;SDS011;38747;53.140;6.498;2023-10-31T05:23:12;2.57;;;0.60;;
52878;SDS011;38747;53.140;6.498;2023-10-31T05:25:37;2.67;;;0.52;;
52878;SDS011;38747;53.140;6.498;2023-10-31T05:28:03;4.53;;;0.70;;
52878;SDS011;38747;53.140;6.498;2023-10-31T05:30:29;5.13;;;0.82;;
52878;SDS011;38747;53.140;6.498;2023-10-31T05:32:55;4.28;;;0.60;;
52878;SDS011;38747;53.140;6.498;2023-10-31T05:35:21;1.40;;;0.50;;
52878;SDS011;38747;53.140;6.498;2023-10-31T05:37:47;3.90;;;0.80;;
52878;SDS011;38747;53.140;6.498;2023-10-31T05:40:13;4.28;;;0.50;;
52878;SDS011;38747;53.140;6.498;2023-10-31T05:42:40;1.20;;;0.50;;
52878;SDS011;38747;53.140;6.498;2023-10-31T05:45:06;1.70;;;0.40;;
52878;SDS011;38747;53.140;6.498;2023-10-31T05:47:31;1.77;;;0.50;;
52878;SDS011;38747;53.140;6.498;2023-10-31T05:49:58;5.85;;;0.70;;
52878;SDS011;38747;53.140;6.498;2023-10-31T05:52:27;5.38;;;0.65;;
52878;SDS011;38747;53.140;6.498;2023-10-31T05:54:57;3.95;;;0.60;;
52878;SDS011;38747;53.140;6.498;2023-10-31T05:57:23;1.83;;;0.60;;
52878;SDS011;38747;53.140;6.498;2023-10-31T05:59:48;4.30;;;0.77;;
52878;SDS011;38747;53.140;6.498;2023-10-31T06:02:14;2.70;;;0.50;;
52878;SDS011;38747;53.140;6.498;2023-10-31T06:04:40;5.70;;;1.13;;
52878;SDS011;38747;53.140;6.498;2023-10-31T06:07:06;3.17;;;0.80;;
52878;SDS011;38747;53.140;6.498;2023-10-31T06:09:32;3.70;;;0.88;;
52878;SDS011;38747;53.140;6.498;2023-10-31T06:11:59;6.78;;;1.20;;
52878;SDS011;38747;53.140;6.498;2023-10-31T06:14:25;3.42;;;0.80;;
52878;SDS011;38747;53.140;6.498;2023-10-31T06:16:51;2.10;;;0.70;;
52878;SDS011;38747;53.140;6.498;2023-10-31T06:19:17;3.63;;;0.98;;
52878;SDS011;38747;53.140;6.498;2023-10-31T06:21:42;4.43;;;1.08;;
52878;SDS011;38747;53.140;6.498;2023-10-31T06:24:08;4.13;;;1.00;;
52878;SDS011;38747;53.140;6.498;2023-10-31T06:26:34;4.90;;;1.42;;
52878;SDS011;38747;53.140;6.498;2023-10-31T06:29:00;5.97;;;1.20;;
52878;SDS011;38747;53.140;6.498;2023-10-31T06:31:25;3.25;;;1.00;;
52878;SDS011;38747;53.140;6.498;2023-10-31T06:33:51;6.33;;;1.33;;
52878;SDS011;38747;53.140;6.498;2023-10-31T06:36:17;5.15;;;1.17;;
52878;SDS011;38747;53.140;6.498;2023-10-31T06:38:42;6.63;;;1.40;;
52878;SDS011;38747;53.140;6.498;2023-10-31T06:41:08;4.72;;;1.30;;
52878;SDS011;38747;53.140;6.498;2023-10-31T06:43:33;7.93;;;1.30;;
52878;SDS011;38747;53.140;6.498;2023-10-31T06:45:59;5.80;;;1.20;;
52878;SDS011;38747;53.140;6.498;2023-10-31T06:48:27;5.35;;;1.30;;
52878;SDS011;38747;53.140;6.498;2023-10-31T06:50:53;4.73;;;1.10;;
52878;SDS011;38747;53.140;6.498;2023-10-31T06:53:18;4.30;;;1.25;;
52878;SDS011;38747;53.140;6.498;2023-10-31T06:55:44;7.67;;;1.40;;
52878;SDS011;38747;53.140;6.498;2023-10-31T06:58:09;5.77;;;1.43;;
52878;SDS011;38747;53.140;6.498;2023-10-31T07:00:35;5.77;;;1.40;;
52878;SDS011;38747;53.140;6.498;2023-10-31T07:03:02;6.32;;;1.33;;
52878;SDS011;38747;53.140;6.498;2023-10-31T07:05:31;4.57;;;1.50;;
52878;SDS011;38747;53.140;6.498;2023-10-31T07:07:57;13.60;;;2.17;;
52878;SDS011;38747;53.140;6.498;2023-10-31T07:10:23;6.63;;;1.75;;
52878;SDS011;38747;53.140;6.498;2023-10-31T07:12:48;4.73;;;1.80;;
52878;SDS011;38747;53.140;6.498;2023-10-31T07:15:14;9.38;;;1.50;;
52878;SDS011;38747;53.140;6.498;2023-10-31T07:17:39;7.17;;;1.20;;
52878;SDS011;38747;53.140;6.498;2023-10-31T07:20:05;4.60;;;1.60;;
52878;SDS011;38747;53.140;6.498;2023-10-31T07:22:31;8.60;;;1.55;;
52878;SDS011;38747;53.140;6.498;2023-10-31T07:24:58;5.45;;;1.38;;
52878;SDS011;38747;53.140;6.498;2023-10-31T07:27:24;7.45;;;1.60;;
52878;SDS011;38747;53.140;6.498;2023-10-31T07:29:50;6.33;;;1.60;;
52878;SDS011;38747;53.140;6.498;2023-10-31T07:32:16;7.15;;;1.70;;
52878;SDS011;38747;53.140;6.498;2023-10-31T07:34:41;5.77;;;1.37;;
52878;SDS011;38747;53.140;6.498;2023-10-31T07:37:07;5.40;;;1.45;;
52878;SDS011;38747;53.140;6.498;2023-10-31T07:39:33;4.70;;;1.20;;
52878;SDS011;38747;53.140;6.498;2023-10-31T07:41:58;6.57;;;1.35;;
52878;SDS011;38747;53.140;6.498;2023-10-31T07:44:24;7.17;;;1.43;;
52878;SDS011;38747;53.140;6.498;2023-10-31T07:46:50;4.50;;;1.30;;
52878;SDS011;38747;53.140;6.498;2023-10-31T07:49:15;4.28;;;1.05;;
52878;SDS011;38747;53.140;6.498;2023-10-31T07:51:41;5.67;;;1.10;;
52878;SDS011;38747;53.140;6.498;2023-10-31T07:54:07;6.35;;;0.90;;
52878;SDS011;38747;53.140;6.498;2023-10-31T07:56:34;4.90;;;1.05;;
52878;SDS011;38747;53.140;6.498;2023-10-31T07:59:01;3.85;;;0.90;;
52878;SDS011;38747;53.140;6.498;2023-10-31T08:01:27;5.80;;;1.10;;
52878;SDS011;38747;53.140;6.498;2023-10-31T08:03:53;3.70;;;0.80;;
52878;SDS011;38747;53.140;6.498;2023-10-31T08:06:19;3.55;;;1.10;;
52878;SDS011;38747;53.140;6.498;2023-10-31T08:08:45;4.50;;;1.00;;
52878;SDS011;38747;53.140;6.498;2023-10-31T08:11:10;3.87;;;1.07;;
52878;SDS011;38747;53.140;6.498;2023-10-31T08:13:39;4.28;;;1.02;;
52878;SDS011;38747;53.140;6.498;2023-10-31T08:16:05;7.57;;;1.00;;
52878;SDS011;38747;53.140;6.498;2023-10-31T08:18:31;4.32;;;0.80;;
52878;SDS011;38747;53.140;6.498;2023-10-31T08:20:57;4.35;;;0.60;;
52878;SDS011;38747;53.140;6.498;2023-10-31T08:23:22;5.60;;;0.80;;
52878;SDS011;38747;53.140;6.498;2023-10-31T08:25:48;3.30;;;0.70;;
52878;SDS011;38747;53.140;6.498;2023-10-31T08:28:15;5.93;;;0.80;;
52878;SDS011;38747;53.140;6.498;2023-10-31T08:30:41;5.22;;;0.82;;
52878;SDS011;38747;53.140;6.498;2023-10-31T08:33:07;2.50;;;0.67;;
52878;SDS011;38747;53.140;6.498;2023-10-31T08:35:32;4.72;;;0.80;;
52878;SDS011;38747;53.140;6.498;2023-10-31T08:37:58;2.47;;;0.50;;
52878;SDS011;38747;53.140;6.498;2023-10-31T08:40:24;2.88;;;0.63;;
52878;SDS011;38747;53.140;6.498;2023-10-31T08:42:50;2.50;;;0.60;;
52878;SDS011;38747;53.140;6.498;2023-10-31T08:45:15;2.77;;;0.60;;
52878;SDS011;38747;53.140;6.498;2023-10-31T08:47:41;2.77;;;0.70;;
52878;SDS011;38747;53.140;6.498;2023-10-31T08:50:07;3.10;;;0.50;;
52878;SDS011;38747;53.140;6.498;2023-10-31T08:52:36;2.15;;;0.60;;
52878;SDS011;38747;53.140;6.498;2023-10-31T08:55:02;1.87;;;0.50;;
52878;SDS011;38747;53.140;6.498;2023-10-31T08:57:29;7.57;;;0.88;;
52878;SDS011;38747;53.140;6.498;2023-10-31T08:59:55;4.80;;;0.60;;
52878;SDS011;38747;53.140;6.498;2023-10-31T09:02:20;8.13;;;0.70;;
52878;SDS011;38747;53.140;6.498;2023-10-31T09:04:46;6.07;;;0.80;;
52878;SDS011;38747;53.140;6.498;2023-10-31T09:07:11;6.93;;;1.83;;
52878;SDS011;38747;53.140;6.498;2023-10-31T09:09:39;5.57;;;0.60;;
52878;SDS011;38747;53.140;6.498;2023-10-31T09:12:05;3.25;;;0.60;;
52878;SDS011;38747;53.140;6.498;2023-10-31T09:14:30;5.33;;;1.40;;
52878;SDS011;38747;53.140;6.498;2023-10-31T09:16:56;4.15;;;0.80;;
52878;SDS011;38747;53.140;6.498;2023-10-31T09:19:22;3.13;;;0.73;;
52878;SDS011;38747;53.140;6.498;2023-10-31T09:21:47;1.67;;;0.80;;
52878;SDS011;38747;53.140;6.498;2023-10-31T09:24:13;3.60;;;0.40;;
52878;SDS011;38747;53.140;6.498;2023-10-31T09:26:42;4.15;;;0.88;;
52878;SDS011;38747;53.140;6.498;2023-10-31T09:29:08;2.80;;;0.70;;
52878;SDS011;38747;53.140;6.498;2023-10-31T09:31:35;2.40;;;0.52;;
52878;SDS011;38747;53.140;6.498;2023-10-31T09:34:01;2.65;;;0.77;;
52878;SDS011;38747;53.140;6.498;2023-10-31T09:36:28;3.37;;;0.60;;
52878;SDS011;38747;53.140;6.498;2023-10-31T09:38:57;3.40;;;0.90;;
52878;SDS011;38747;53.140;6.498;2023-10-31T09:41:22;7.38;;;0.70;;
52878;SDS011;38747;53.140;6.498;2023-10-31T09:43:48;2.80;;;0.50;;
52878;SDS011;38747;53.140;6.498;2023-10-31T09:46:14;2.95;;;0.88;;
52878;SDS011;38747;53.140;6.498;2023-10-31T09:48:42;4.30;;;0.47;;
52878;SDS011;38747;53.140;6.498;2023-10-31T09:51:08;4.50;;;0.40;;
52878;SDS011;38747;53.140;6.498;2023-10-31T09:53:37;4.60;;;0.40;;
52878;SDS011;38747;53.140;6.498;2023-10-31T09:56:06;3.57;;;0.50;;
52878;SDS011;38747;53.140;6.498;2023-10-31T09:58:33;3.08;;;0.50;;
52878;SDS011;38747;53.140;6.498;2023-10-31T10:00:59;3.28;;;0.52;;
52878;SDS011;38747;53.140;6.498;2023-10-31T10:03:25;3.90;;;0.40;;
52878;SDS011;38747;53.140;6.498;2023-10-31T10:05:51;1.08;;;0.30;;
52878;SDS011;38747;53.140;6.498;2023-10-31T10:08:17;2.17;;;0.40;;
52878;SDS011;38747;53.140;6.498;2023-10-31T10:10:44;4.18;;;0.70;;
52878;SDS011;38747;53.140;6.498;2023-10-31T10:13:10;3.28;;;0.40;;
52878;SDS011;38747;53.140;6.498;2023-10-31T10:15:50;3.92;;;0.40;;
52878;SDS011;38747;53.140;6.498;2023-10-31T10:18:30;2.67;;;0.43;;
52878;SDS011;38747;53.140;6.498;2023-10-31T10:20:57;3.50;;;0.60;;
52878;SDS011;38747;53.140;6.498;2023-10-31T10:23:25;2.08;;;0.60;;
52878;SDS011;38747;53.140;6.498;2023-10-31T10:25:52;4.32;;;0.88;;
52878;SDS011;38747;53.140;6.498;2023-10-31T10:28:18;3.08;;;0.60;;
52878;SDS011;38747;53.140;6.498;2023-10-31T10:30:47;2.03;;;0.53;;
52878;SDS011;38747;53.140;6.498;2023-10-31T10:33:14;4.43;;;0.55;;
52878;SDS011;38747;53.140;6.498;2023-10-31T10:35:41;3.17;;;0.60;;
52878;SDS011;38747;53.140;6.498;2023-10-31T10:38:10;2.10;;;0.50;;
52878;SDS011;38747;53.140;6.498;2023-10-31T10:40:39;3.22;;;0.80;;
52878;SDS011;38747;53.140;6.498;2023-10-31T10:43:12;2.17;;;0.50;;
52878;SDS011;38747;53.140;6.498;2023-10-31T10:45:41;4.00;;;0.80;;
52878;SDS011;38747;53.140;6.498;2023-10-31T10:48:11;4.25;;;0.60;;
52878;SDS011;38747;53.140;6.498;2023-10-31T10:50:45;5.72;;;0.60;;
52878;SDS011;38747;53.140;6.498;2023-10-31T10:55:52;2.50;;;0.40;;
52878;SDS011;38747;53.140;6.498;2023-10-31T10:58:36;3.38;;;0.47;;
52878;SDS011;38747;53.140;6.498;2023-10-31T11:01:14;2.92;;;0.40;;
52878;SDS011;38747;53.140;6.498;2023-10-31T11:03:43;4.15;;;0.50;;
52878;SDS011;38747;53.140;6.498;2023-10-31T11:06:10;3.97;;;0.50;;
52878;SDS011;38747;53.140;6.498;2023-10-31T11:08:36;1.57;;;0.40;;
52878;SDS011;38747;53.140;6.498;2023-10-31T11:11:02;3.67;;;1.05;;
52878;SDS011;38747;53.140;6.498;2023-10-31T11:13:29;2.47;;;0.50;;
52878;SDS011;38747;53.140;6.498;2023-10-31T11:15:55;3.80;;;0.50;;
52878;SDS011;38747;53.140;6.498;2023-10-31T11:18:25;3.28;;;0.55;;
52878;SDS011;38747;53.140;6.498;2023-10-31T11:20:51;3.75;;;0.60;;
52878;SDS011;38747;53.140;6.498;2023-10-31T11:23:17;3.37;;;0.50;;
52878;SDS011;38747;53.140;6.498;2023-10-31T11:25:43;3.28;;;0.50;;
52878;SDS011;38747;53.140;6.498;2023-10-31T11:28:13;2.45;;;0.47;;
52878;SDS011;38747;53.140;6.498;2023-10-31T11:30:42;2.67;;;0.60;;
52878;SDS011;38747;53.140;6.498;2023-10-31T11:33:12;3.70;;;0.80;;
52878;SDS011;38747;53.140;6.498;2023-10-31T11:35:41;2.45;;;0.40;;
52878;SDS011;38747;53.140;6.498;2023-10-31T11:38:09;2.92;;;0.40;;
52878;SDS011;38747;53.140;6.498;2023-10-31T11:40:58;2.17;;;0.60;;
52878;SDS011;38747;53.140;6.498;2023-10-31T11:43:24;3.13;;;0.60;;
52878;SDS011;38747;53.140;6.498;2023-10-31T11:45:50;2.30;;;0.50;;
52878;SDS011;38747;53.140;6.498;2023-10-31T11:48:16;3.60;;;0.50;;
52878;SDS011;38747;53.140;6.498;2023-10-31T11:51:02;4.77;;;0.70;;
52878;SDS011;38747;53.140;6.498;2023-10-31T11:53:28;4.97;;;0.47;;
52878;SDS011;38747;53.140;6.498;2023-10-31T11:55:55;2.78;;;0.40;;
52878;SDS011;38747;53.140;6.498;2023-10-31T11:58:22;3.00;;;0.50;;
52878;SDS011;38747;53.140;6.498;2023-10-31T12:01:00;4.40;;;0.50;;
52878;SDS011;38747;53.140;6.498;2023-10-31T12:03:27;3.63;;;0.50;;
52878;SDS011;38747;53.140;6.498;2023-10-31T12:06:01;3.85;;;0.63;;
52878;SDS011;38747;53.140;6.498;2023-10-31T12:08:27;4.57;;;0.60;;
52878;SDS011;38747;53.140;6.498;2023-10-31T12:11:07;7.35;;;0.60;;
52878;SDS011;38747;53.140;6.498;2023-10-31T12:16:16;4.50;;;0.60;;
52878;SDS011;38747;53.140;6.498;2023-10-31T12:18:43;4.70;;;0.60;;
52878;SDS011;38747;53.140;6.498;2023-10-31T12:21:08;4.45;;;0.57;;
52878;SDS011;38747;53.140;6.498;2023-10-31T12:23:39;3.83;;;0.60;;
52878;SDS011;38747;53.140;6.498;2023-10-31T12:26:05;4.22;;;0.55;;
52878;SDS011;38747;53.140;6.498;2023-10-31T12:28:31;4.00;;;0.60;;
52878;SDS011;38747;53.140;6.498;2023-10-31T12:30:56;2.53;;;0.50;;
52878;SDS011;38747;53.140;6.498;2023-10-31T12:33:25;4.53;;;0.50;;
52878;SDS011;38747;53.140;6.498;2023-10-31T12:36:01;3.35;;;0.40;;
52878;SDS011;38747;53.140;6.498;2023-10-31T12:38:27;8.57;;;0.80;;
52878;SDS011;38747;53.140;6.498;2023-10-31T12:40:53;6.22;;;0.63;;
52878;SDS011;38747;53.140;6.498;2023-10-31T12:43:20;4.53;;;0.80;;
52878;SDS011;38747;53.140;6.498;2023-10-31T12:45:46;4.00;;;0.68;;
52878;SDS011;38747;53.140;6.498;2023-10-31T12:48:12;2.27;;;0.40;;
52878;SDS011;38747;53.140;6.498;2023-10-31T12:50:38;5.65;;;0.65;;
52878;SDS011;38747;53.140;6.498;2023-10-31T12:53:07;8.93;;;0.80;;
52878;SDS011;38747;53.140;6.498;2023-10-31T12:55:40;5.05;;;0.50;;
52878;SDS011;38747;53.140;6.498;2023-10-31T12:58:07;5.15;;;0.65;;
52878;SDS011;38747;53.140;6.498;2023-10-31T13:00:35;5.43;;;0.90;;
52878;SDS011;38747;53.140;6.498;2023-10-31T13:03:05;11.00;;;0.82;;
52878;SDS011;38747;53.140;6.498;2023-10-31T13:05:36;4.50;;;0.60;;
52878;SDS011;38747;53.140;6.498;2023-10-31T13:08:08;3.88;;;0.50;;
52878;SDS011;38747;53.140;6.498;2023-10-31T13:10:38;4.25;;;0.77;;
52878;SDS011;38747;53.140;6.498;2023-10-31T13:13:04;2.58;;;0.50;;
52878;SDS011;38747;53.140;6.498;2023-10-31T13:15:30;5.23;;;1.03;;
52878;SDS011;38747;53.140;6.498;2023-10-31T13:17:55;4.05;;;1.08;;
52878;SDS011;38747;53.140;6.498;2023-10-31T13:20:22;4.55;;;0.60;;
52878;SDS011;38747;53.140;6.498;2023-10-31T13:22:48;9.87;;;0.93;;
52878;SDS011;38747;53.140;6.498;2023-10-31T13:25:14;2.92;;;0.52;;
52878;SDS011;38747;53.140;6.498;2023-10-31T13:27:41;7.15;;;0.70;;
52878;SDS011;38747;53.140;6.498;2023-10-31T13:30:08;6.00;;;0.52;;
52878;SDS011;38747;53.140;6.498;2023-10-31T13:32:39;2.07;;;0.50;;
52878;SDS011;38747;53.140;6.498;2023-10-31T13:35:05;6.47;;;0.70;;
52878;SDS011;38747;53.140;6.498;2023-10-31T13:37:34;3.40;;;0.63;;
52878;SDS011;38747;53.140;6.498;2023-10-31T13:40:00;2.78;;;0.60;;
52878;SDS011;38747;53.140;6.498;2023-10-31T13:42:26;3.95;;;0.77;;
52878;SDS011;38747;53.140;6.498;2023-10-31T13:44:53;4.00;;;0.80;;
52878;SDS011;38747;53.140;6.498;2023-10-31T13:47:19;7.05;;;1.00;;
52878;SDS011;38747;53.140;6.498;2023-10-31T13:49:44;5.57;;;0.60;;
52878;SDS011;38747;53.140;6.498;2023-10-31T13:52:11;4.00;;;0.60;;
52878;SDS011;38747;53.140;6.498;2023-10-31T13:54:37;5.45;;;0.77;;
52878;SDS011;38747;53.140;6.498;2023-10-31T13:57:02;6.50;;;0.57;;
52878;SDS011;38747;53.140;6.498;2023-10-31T13:59:28;4.33;;;0.50;;
52878;SDS011;38747;53.140;6.498;2023-10-31T14:01:54;4.35;;;0.50;;
52878;SDS011;38747;53.140;6.498;2023-10-31T14:04:20;3.23;;;0.50;;
52878;SDS011;38747;53.140;6.498;2023-10-31T14:06:46;6.70;;;0.70;;
52878;SDS011;38747;53.140;6.498;2023-10-31T14:09:12;6.60;;;1.10;;
52878;SDS011;38747;53.140;6.498;2023-10-31T14:11:38;4.57;;;0.73;;
52878;SDS011;38747;53.140;6.498;2023-10-31T14:14:07;4.93;;;0.70;;
52878;SDS011;38747;53.140;6.498;2023-10-31T14:16:38;4.55;;;0.60;;
52878;SDS011;38747;53.140;6.498;2023-10-31T14:19:05;7.35;;;0.85;;
52878;SDS011;38747;53.140;6.498;2023-10-31T14:21:32;3.47;;;0.80;;
52878;SDS011;38747;53.140;6.498;2023-10-31T14:24:00;5.78;;;0.60;;
52878;SDS011;38747;53.140;6.498;2023-10-31T14:26:28;6.00;;;0.50;;
52878;SDS011;38747;53.140;6.498;2023-10-31T14:28:54;5.30;;;0.55;;
52878;SDS011;38747;53.140;6.498;2023-10-31T14:31:20;4.80;;;0.70;;
52878;SDS011;38747;53.140;6.498;2023-10-31T14:33:46;6.77;;;0.80;;
52878;SDS011;38747;53.140;6.498;2023-10-31T14:36:12;3.28;;;0.50;;
52878;SDS011;38747;53.140;6.498;2023-10-31T14:38:38;5.47;;;0.60;;
52878;SDS011;38747;53.140;6.498;2023-10-31T14:41:07;6.30;;;1.30;;
52878;SDS011;38747;53.140;6.498;2023-10-31T14:43:33;3.88;;;0.57;;
52878;SDS011;38747;53.140;6.498;2023-10-31T14:45:59;2.40;;;0.60;;
52878;SDS011;38747;53.140;6.498;2023-10-31T14:48:28;3.72;;;0.50;;
52878;SDS011;38747;53.140;6.498;2023-10-31T14:50:56;5.45;;;0.70;;
52878;SDS011;38747;53.140;6.498;2023-10-31T14:53:24;3.33;;;0.63;;